createdAt,value
2022-08-18T00:02:13.188Z,17.69
2022-08-18T00:04:48.516Z,17.80
2022-08-18T00:07:21.401Z,17.83
2022-08-18T00:09:48.111Z,17.98
2022-08-18T00:12:22.269Z,17.92
2022-08-18T00:14:49.178Z,17.81
2022-08-18T00:17:17.552Z,17.72
2022-08-18T00:19:47.819Z,17.77
2022-08-18T00:22:18.842Z,17.74
2022-08-18T00:24:49.283Z,17.66
2022-08-18T00:27:19.551Z,17.63
2022-08-18T00:29:48.963Z,17.60
2022-08-18T00:32:27.828Z,17.67
2022-08-18T00:34:54.782Z,17.62
2022-08-18T00:37:23.043Z,17.54
2022-08-18T00:39:53.944Z,17.51
2022-08-18T00:42:27.489Z,17.42
2022-08-18T00:44:57.379Z,17.41
2022-08-18T00:47:41.815Z,17.41
2022-08-18T00:50:21.426Z,17.35
2022-08-18T00:52:56.731Z,17.29
2022-08-18T00:55:24.939Z,17.18
2022-08-18T00:57:55.366Z,17.15
2022-08-18T01:00:22.870Z,17.12
2022-08-18T01:02:54.631Z,17.10
2022-08-18T01:05:30.336Z,17.04
2022-08-18T01:07:57.272Z,17.10
2022-08-18T01:10:24.413Z,17.12
2022-08-18T01:12:56.324Z,17.07
2022-08-18T01:15:29.634Z,17.02
2022-08-18T01:18:22.304Z,16.95
2022-08-18T01:21:45.497Z,16.97
2022-08-18T01:24:13.265Z,16.94
2022-08-18T01:26:50.455Z,16.94
2022-08-18T01:29:19.601Z,16.80
2022-08-18T01:31:55.413Z,16.79
2022-08-18T01:34:28.362Z,16.76
2022-08-18T01:36:55.895Z,16.67
2022-08-18T01:41:01.088Z,16.66
2022-08-18T01:42:11.118Z,16.56
2022-08-18T01:44:41.531Z,16.55
2022-08-18T01:47:10.692Z,16.56
2022-08-18T01:49:39.808Z,16.51
2022-08-18T01:52:07.389Z,16.47
2022-08-18T01:54:34.331Z,16.45
2022-08-18T01:57:02.410Z,16.44
2022-08-18T01:59:29.298Z,16.48
2022-08-18T02:01:56.303Z,16.53
2022-08-18T02:04:37.236Z,16.47
2022-08-18T02:07:07.445Z,16.46
2022-08-18T02:09:34.712Z,16.46
2022-08-18T02:12:01.797Z,16.43
2022-08-18T02:14:31.163Z,16.44
2022-08-18T02:17:01.554Z,16.40
2022-08-18T02:19:43.994Z,16.31
2022-08-18T02:22:14.245Z,16.27
2022-08-18T02:24:41.034Z,16.23
2022-08-18T02:27:09.465Z,16.31
2022-08-18T02:29:37.209Z,16.35
2022-08-18T02:32:04.931Z,16.35
2022-08-18T02:34:31.917Z,16.33
2022-08-18T02:37:01.512Z,16.33
2022-08-18T02:39:28.767Z,16.44
2022-08-18T02:41:55.427Z,16.39
2022-08-18T02:44:22.086Z,16.37
2022-08-18T02:46:54.008Z,16.39
2022-08-18T02:49:20.913Z,16.35
2022-08-18T02:51:47.602Z,16.30
2022-08-18T02:54:14.258Z,16.35
2022-08-18T02:56:42.620Z,16.31
2022-08-18T02:59:12.876Z,16.27
2022-08-18T03:01:43.323Z,16.20
2022-08-18T03:04:12.660Z,16.12
2022-08-18T03:06:40.377Z,16.09
2022-08-18T03:09:09.652Z,16.09
2022-08-18T03:11:37.827Z,16.11
2022-08-18T03:14:05.842Z,16.08
2022-08-18T03:16:38.698Z,16.13
2022-08-18T03:19:05.328Z,16.11
2022-08-18T03:21:36.755Z,16.03
2022-08-18T03:24:09.334Z,16.01
2022-08-18T03:26:42.108Z,15.87
2022-08-18T03:29:09.647Z,15.78
2022-08-18T03:31:39.044Z,15.68
2022-08-18T03:34:08.375Z,15.49
2022-08-18T03:36:36.869Z,15.47
2022-08-18T03:39:09.737Z,15.45
2022-08-18T03:41:52.338Z,15.23
2022-08-18T03:44:27.844Z,15.16
2022-08-18T03:46:54.490Z,15.13
2022-08-18T03:49:21.129Z,15.21
2022-08-18T03:51:48.941Z,15.28
2022-08-18T03:54:17.595Z,15.32
2022-08-18T03:56:46.130Z,15.26
2022-08-18T03:59:18.081Z,15.10
2022-08-18T04:01:47.023Z,15.05
2022-08-18T04:04:17.405Z,14.93
2022-08-18T04:06:50.225Z,14.89
2022-08-18T04:09:18.611Z,14.76
2022-08-18T04:11:45.897Z,14.82
2022-08-18T04:14:17.795Z,14.92
2022-08-18T04:16:44.734Z,14.98
2022-08-18T04:19:13.732Z,15.05
2022-08-18T04:21:42.493Z,15.14
2022-08-18T04:24:11.230Z,15.27
2022-08-18T04:26:46.022Z,15.37
2022-08-18T04:29:14.822Z,15.36
2022-08-18T04:31:41.617Z,15.40
2022-08-18T04:34:08.815Z,15.29
2022-08-18T04:36:36.871Z,15.20
2022-08-18T04:39:06.330Z,15.11
2022-08-18T04:41:33.395Z,15.11
2022-08-18T04:44:02.722Z,15.20
2022-08-18T04:46:31.224Z,15.33
2022-08-18T04:48:59.357Z,15.40
2022-08-18T04:52:38.309Z,15.49
2022-08-18T04:54:16.167Z,15.61
2022-08-18T04:56:43.519Z,15.70
2022-08-18T04:59:14.706Z,15.84
2022-08-18T05:01:45.685Z,15.98
2022-08-18T05:04:14.288Z,16.02
2022-08-18T05:06:43.367Z,16.07
2022-08-18T05:09:12.880Z,16.28
2022-08-18T05:11:44.638Z,16.46
2022-08-18T05:14:11.777Z,16.53
2022-08-18T05:16:47.872Z,16.69
2022-08-18T05:19:19.830Z,16.76
2022-08-18T05:21:51.285Z,16.97
2022-08-18T05:24:18.987Z,17.20
2022-08-18T05:26:46.015Z,17.33
2022-08-18T05:29:18.759Z,17.44
2022-08-18T05:31:46.932Z,17.53
2022-08-18T05:34:13.543Z,17.59
2022-08-18T05:36:48.979Z,17.63
2022-08-18T05:39:48.925Z,17.67
2022-08-18T05:42:20.064Z,17.77
2022-08-18T05:44:48.790Z,17.74
2022-08-18T05:47:19.168Z,17.79
2022-08-18T05:49:49.122Z,17.80
2022-08-18T05:52:56.683Z,17.88
2022-08-18T05:55:47.980Z,17.98
2022-08-18T05:58:40.172Z,17.99
2022-08-18T06:01:22.019Z,17.88
2022-08-18T06:04:17.797Z,17.89
2022-08-18T06:06:47.914Z,17.78
2022-08-18T06:09:26.123Z,17.72
2022-08-18T06:11:58.647Z,17.79
2022-08-18T06:14:25.832Z,17.77
2022-08-18T06:17:12.632Z,17.76
2022-08-18T06:19:52.264Z,17.71
2022-08-18T06:22:37.740Z,17.73
2022-08-18T06:25:30.459Z,17.76
2022-08-18T06:28:07.827Z,17.92
2022-08-18T06:30:49.402Z,18.06
2022-08-18T06:33:46.015Z,18.17
2022-08-18T06:36:49.869Z,18.17
2022-08-18T06:39:27.090Z,18.16
2022-08-18T06:41:54.704Z,18.23
2022-08-18T06:44:29.389Z,18.22
2022-08-18T06:47:13.329Z,18.23
2022-08-18T06:49:51.192Z,18.25
2022-08-18T06:52:30.653Z,18.30
2022-08-18T06:55:00.099Z,18.43
2022-08-18T06:57:39.569Z,18.40
2022-08-18T07:00:09.773Z,18.51
2022-08-18T07:02:45.757Z,18.57
2022-08-18T07:05:15.189Z,18.89
2022-08-18T07:07:43.321Z,19.05
2022-08-18T07:10:15.975Z,19.18
2022-08-18T07:12:42.876Z,19.27
2022-08-18T07:15:13.056Z,19.26
2022-08-18T07:17:53.049Z,19.44
2022-08-18T07:20:24.199Z,19.86
2022-08-18T07:22:55.927Z,19.99
2022-08-18T07:25:27.352Z,19.98
2022-08-18T07:27:56.802Z,20.04
2022-08-18T07:30:23.908Z,19.87
2022-08-18T07:33:17.012Z,20.28
2022-08-18T07:36:06.494Z,20.57
2022-08-18T07:38:46.382Z,20.58
2022-08-18T07:41:26.711Z,20.45
2022-08-18T07:44:37.833Z,20.32
2022-08-18T07:47:20.164Z,20.27
2022-08-18T07:50:15.736Z,20.48
2022-08-18T07:52:47.384Z,20.98
2022-08-18T07:55:27.862Z,21.09
2022-08-18T07:58:20.107Z,21.31
2022-08-18T08:01:09.542Z,21.49
2022-08-18T08:03:46.010Z,21.55
2022-08-18T08:06:24.039Z,21.36
2022-08-18T08:08:56.953Z,21.37
2022-08-18T08:11:23.509Z,21.41
2022-08-18T08:14:10.274Z,21.69
2022-08-18T08:16:50.411Z,21.67
2022-08-18T08:19:58.915Z,21.63
2022-08-18T08:22:23.288Z,21.76
2022-08-18T08:25:42.713Z,21.59
2022-08-18T08:28:07.700Z,21.89
2022-08-18T08:30:44.112Z,21.75
2022-08-18T08:33:25.312Z,21.66
2022-08-18T08:36:03.342Z,21.71
2022-08-18T08:38:45.070Z,21.70
2022-08-18T08:42:30.214Z,22.05
2022-08-18T08:45:01.061Z,22.36
2022-08-18T08:47:41.371Z,22.34
2022-08-18T08:50:14.646Z,22.61
2022-08-18T08:52:56.862Z,22.91
2022-08-18T08:55:28.422Z,23.23
2022-08-18T08:58:01.117Z,23.05
2022-08-18T09:00:29.399Z,23.04
2022-08-18T09:02:56.000Z,23.10
2022-08-18T09:05:30.124Z,23.14
2022-08-18T09:08:06.982Z,22.95
2022-08-18T09:11:06.567Z,23.22
2022-08-18T09:14:18.358Z,23.66
2022-08-18T09:17:23.887Z,23.98
2022-08-18T09:20:00.436Z,24.29
2022-08-18T09:22:39.152Z,24.34
2022-08-18T09:25:11.357Z,24.59
2022-08-18T09:28:09.504Z,24.47
2022-08-18T09:33:44.068Z,24.49
2022-08-18T09:36:32.555Z,24.46
2022-08-18T09:39:23.210Z,24.45
2022-08-18T09:41:58.984Z,24.24
2022-08-18T09:44:42.828Z,24.46
2022-08-18T09:47:10.252Z,24.20
2022-08-18T09:52:37.548Z,24.08
2022-08-18T09:55:27.614Z,24.58
2022-08-18T09:58:22.862Z,24.88
2022-08-18T10:01:32.414Z,25.14
2022-08-18T10:04:15.496Z,25.23
2022-08-18T10:06:48.759Z,24.87
2022-08-18T10:09:26.956Z,25.06
2022-08-18T10:12:27.692Z,25.38
2022-08-18T10:15:33.330Z,24.81
2022-08-18T10:18:12.996Z,24.47
2022-08-18T10:20:55.927Z,24.33
2022-08-18T10:23:48.011Z,24.53
2022-08-18T10:26:30.346Z,25.33
2022-08-18T10:28:58.982Z,25.90
2022-08-18T10:31:27.574Z,26.57
2022-08-18T10:34:05.503Z,26.68
2022-08-18T10:36:51.262Z,26.95
2022-08-18T10:39:27.756Z,26.93
2022-08-18T10:42:01.690Z,26.55
2022-08-18T10:44:33.451Z,26.27
2022-08-18T10:47:02.381Z,25.80
2022-08-18T10:49:33.445Z,26.56
2022-08-18T10:52:09.415Z,26.66
2022-08-18T10:54:51.816Z,26.67
2022-08-18T10:57:38.046Z,26.63
2022-08-18T11:00:19.335Z,26.80
2022-08-18T11:06:04.912Z,27.55
2022-08-18T11:08:37.968Z,27.73
2022-08-18T11:14:17.240Z,28.08
2022-08-18T11:16:53.937Z,28.33
2022-08-18T11:19:25.223Z,27.57
2022-08-18T11:21:53.549Z,27.07
2022-08-18T11:24:30.450Z,27.16
2022-08-18T11:27:04.118Z,26.66
2022-08-18T11:29:39.010Z,26.89
2022-08-18T11:32:11.017Z,26.78
2022-08-18T11:34:41.170Z,27.10
2022-08-18T11:37:25.906Z,28.02
2022-08-18T11:39:56.181Z,27.57
2022-08-18T11:42:38.479Z,28.98
2022-08-18T11:45:23.302Z,29.28
2022-08-18T11:48:10.581Z,29.64
2022-08-18T11:50:54.649Z,29.93
2022-08-18T11:53:32.392Z,30.57
2022-08-18T11:56:30.876Z,30.98
2022-08-18T11:59:03.143Z,31.29
2022-08-18T12:01:54.876Z,31.41
2022-08-18T12:04:29.030Z,31.36
2022-08-18T12:06:56.237Z,31.03
2022-08-18T12:12:28.452Z,31.25
2022-08-18T12:15:02.914Z,31.31
2022-08-18T12:17:40.529Z,30.78
2022-08-18T12:20:09.379Z,30.20
2022-08-18T12:22:41.376Z,29.76
2022-08-18T12:25:16.488Z,29.24
2022-08-18T12:27:51.845Z,29.42
2022-08-18T12:30:19.240Z,29.24
2022-08-18T12:32:49.447Z,28.87
2022-08-18T12:35:22.164Z,28.62
2022-08-18T12:38:13.693Z,28.40
2022-08-18T12:40:37.506Z,28.97
2022-08-18T12:43:06.092Z,29.62
2022-08-18T12:45:33.924Z,29.64
2022-08-18T12:48:04.493Z,28.99
2022-08-18T12:50:36.234Z,29.05
2022-08-18T12:53:05.232Z,29.68
2022-08-18T12:55:43.608Z,28.83
2022-08-18T12:58:24.907Z,28.29
2022-08-18T13:00:51.897Z,28.23
2022-08-18T13:03:19.692Z,28.01
2022-08-18T13:05:47.778Z,27.70
2022-08-18T13:08:30.229Z,27.95
2022-08-18T13:11:14.560Z,27.64
2022-08-18T13:13:42.865Z,26.84
2022-08-18T13:16:10.361Z,26.82
2022-08-18T13:18:43.379Z,26.80
2022-08-18T13:21:13.457Z,26.51
2022-08-18T13:23:40.472Z,26.21
2022-08-18T13:26:12.500Z,26.27
2022-08-18T13:28:57.184Z,26.06
2022-08-18T13:31:26.373Z,25.99
2022-08-18T13:33:56.848Z,26.07
2022-08-18T13:36:26.175Z,25.99
2022-08-18T13:38:56.212Z,25.92
2022-08-18T13:43:53.406Z,25.74
2022-08-18T13:46:24.205Z,25.85
2022-08-18T13:49:02.891Z,25.93
2022-08-18T13:51:30.770Z,25.95
2022-08-18T13:54:17.852Z,26.00
2022-08-18T13:56:51.480Z,25.73
2022-08-18T13:59:21.642Z,25.63
2022-08-18T14:01:53.453Z,25.90
2022-08-18T14:04:22.699Z,25.81
2022-08-18T14:06:56.967Z,25.80
2022-08-18T14:09:36.603Z,25.75
2022-08-18T14:12:22.595Z,25.75
2022-08-18T14:14:57.487Z,25.80
2022-08-18T14:17:28.305Z,25.51
2022-08-18T14:20:21.759Z,25.68
2022-08-18T14:23:21.643Z,25.82
2022-08-18T14:26:07.261Z,25.97
2022-08-18T14:28:35.150Z,26.17
2022-08-18T14:31:07.134Z,26.17
2022-08-18T14:33:50.772Z,26.13
2022-08-18T14:36:20.558Z,26.02
2022-08-18T14:38:57.621Z,25.93
2022-08-18T14:41:27.154Z,25.69
2022-08-18T14:44:12.948Z,25.49
2022-08-18T14:46:54.284Z,25.35
2022-08-18T14:49:28.100Z,25.27
2022-08-18T14:52:00.441Z,25.14
2022-08-18T14:54:28.773Z,24.91
2022-08-18T14:56:57.791Z,24.74
2022-08-18T14:59:25.174Z,24.56
2022-08-18T15:01:53.504Z,24.56
2022-08-18T15:04:21.728Z,24.61
2022-08-18T15:06:55.903Z,24.65
2022-08-18T15:09:24.019Z,24.67
2022-08-18T15:11:56.224Z,24.66
2022-08-18T15:14:33.244Z,24.63
2022-08-18T15:17:13.091Z,24.60
2022-08-18T15:20:00.447Z,24.54
2022-08-18T15:22:46.244Z,24.46
2022-08-18T15:25:34.037Z,24.32
2022-08-18T15:28:01.324Z,24.28
2022-08-18T15:30:28.517Z,24.29
2022-08-18T15:32:55.986Z,24.24
2022-08-18T15:35:22.953Z,24.20
2022-08-18T15:37:51.422Z,24.21
2022-08-18T15:40:30.995Z,24.01
2022-08-18T15:43:09.535Z,23.99
2022-08-18T15:45:56.126Z,23.91
2022-08-18T15:48:26.308Z,23.79
2022-08-18T15:50:53.388Z,23.75
2022-08-18T15:53:23.250Z,23.68
2022-08-18T15:55:50.408Z,23.59
2022-08-18T15:58:22.529Z,23.59
2022-08-18T16:00:54.149Z,23.64
2022-08-18T16:03:21.782Z,23.59
2022-08-18T16:05:52.933Z,23.57
2022-08-18T16:08:22.159Z,23.47
2022-08-18T16:10:49.206Z,23.44
2022-08-18T16:13:16.139Z,23.44
2022-08-18T16:15:46.962Z,23.39
2022-08-18T16:18:14.386Z,23.33
2022-08-18T16:20:41.599Z,23.13
2022-08-18T16:23:09.744Z,23.04
2022-08-18T16:25:41.563Z,22.93
2022-08-18T16:28:09.340Z,22.93
2022-08-18T16:30:36.309Z,22.84
2022-08-18T16:33:05.811Z,22.72
2022-08-18T16:35:35.175Z,22.42
2022-08-18T16:38:08.907Z,22.18
2022-08-18T16:40:37.455Z,21.99
2022-08-18T16:43:04.983Z,21.95
2022-08-18T16:45:33.822Z,21.97
2022-08-18T16:48:00.889Z,21.84
2022-08-18T16:50:28.062Z,21.48
2022-08-18T16:52:55.065Z,20.75
2022-08-18T16:55:21.867Z,19.70
2022-08-18T16:58:07.506Z,19.23
2022-08-18T17:00:54.908Z,18.76
2022-08-18T17:03:43.658Z,18.34
2022-08-18T17:06:17.119Z,18.18
2022-08-18T17:08:44.314Z,17.85
2022-08-18T17:11:17.545Z,17.68
2022-08-18T17:13:46.325Z,17.30
2022-08-18T17:16:13.727Z,16.68
2022-08-18T17:18:41.447Z,16.38
2022-08-18T17:21:11.571Z,16.35
2022-08-18T17:23:39.301Z,16.27
2022-08-18T17:26:13.051Z,16.30
2022-08-18T17:28:46.124Z,16.31
2022-08-18T17:31:21.194Z,16.38
2022-08-18T17:33:48.076Z,16.36
2022-08-18T17:36:33.786Z,16.52
2022-08-18T17:39:05.542Z,16.67
2022-08-18T17:41:54.646Z,16.80
2022-08-18T17:44:21.487Z,16.96
2022-08-18T17:47:02.476Z,16.89
2022-08-18T17:50:04.161Z,17.05
2022-08-18T17:52:53.501Z,17.15
2022-08-18T17:55:36.454Z,17.07
2022-08-18T17:58:18.716Z,17.12
2022-08-18T18:00:45.760Z,17.19
2022-08-18T18:03:13.440Z,17.26
2022-08-18T18:05:44.682Z,17.23
2022-08-18T18:08:11.333Z,17.05
2022-08-18T18:11:04.466Z,17.09
2022-08-18T18:13:32.917Z,16.87
2022-08-18T18:16:02.820Z,16.80
2022-08-18T18:18:45.042Z,16.72
2022-08-18T18:21:15.770Z,16.87
2022-08-18T18:23:46.747Z,16.98
2022-08-18T18:26:22.722Z,17.13
2022-08-18T18:28:50.762Z,17.12
2022-08-18T18:31:25.699Z,17.13
2022-08-18T18:34:03.333Z,17.07
2022-08-18T18:36:43.136Z,17.01
2022-08-18T18:39:16.807Z,16.99
2022-08-18T18:41:44.117Z,16.91
2022-08-18T18:44:13.843Z,16.89
2022-08-18T18:46:53.740Z,16.87
2022-08-18T18:50:09.194Z,16.83
2022-08-18T18:53:14.462Z,16.86
2022-08-18T18:56:05.683Z,16.83
2022-08-18T18:58:39.186Z,16.87
2022-08-18T19:01:17.475Z,16.87
2022-08-18T19:03:56.976Z,16.90
2022-08-18T19:06:32.042Z,16.93
2022-08-18T19:09:17.330Z,17.01
2022-08-18T19:12:05.372Z,17.02
2022-08-18T19:15:00.328Z,16.98
2022-08-18T19:17:43.888Z,17.07
2022-08-18T19:20:19.775Z,17.13
2022-08-18T19:23:34.228Z,17.14
2022-08-18T19:26:11.985Z,17.21
2022-08-18T19:28:38.819Z,17.15
2022-08-18T19:31:37.691Z,17.16
2022-08-18T19:34:12.160Z,17.12
2022-08-18T19:36:58.350Z,17.18
2022-08-18T19:40:01.471Z,17.18
2022-08-18T19:42:35.452Z,17.23
2022-08-18T19:45:36.529Z,17.21
2022-08-18T19:48:21.569Z,17.21
2022-08-18T19:50:51.339Z,17.19
2022-08-18T19:53:36.454Z,17.18
2022-08-18T19:56:11.663Z,17.25
2022-08-18T19:59:36.228Z,17.29
2022-08-18T20:02:05.711Z,17.35
2022-08-18T20:04:54.253Z,17.41
2022-08-18T20:07:26.833Z,17.46
2022-08-18T20:10:12.644Z,17.49
2022-08-18T20:13:08.347Z,17.56
2022-08-18T20:15:35.070Z,17.58
2022-08-18T20:18:17.323Z,17.62
2022-08-18T20:21:15.746Z,17.73
2022-08-18T20:23:57.938Z,17.88
2022-08-18T20:26:39.993Z,17.98
2022-08-18T20:29:09.529Z,17.99
2022-08-18T20:31:51.796Z,18.01
2022-08-18T20:34:25.000Z,18.04
2022-08-18T20:36:53.454Z,18.05
2022-08-18T20:39:41.851Z,18.08
2022-08-18T20:42:20.660Z,18.05
2022-08-18T20:44:50.619Z,18.10
2022-08-18T20:47:48.407Z,18.17
2022-08-18T20:50:46.127Z,18.13
2022-08-18T20:53:50.908Z,18.12
2022-08-18T20:56:43.273Z,18.07
2022-08-18T20:59:18.687Z,17.99
2022-08-18T21:02:06.038Z,17.99
2022-08-18T21:04:34.092Z,17.92
2022-08-18T21:07:12.930Z,18.07
2022-08-18T21:09:40.266Z,18.10
2022-08-18T21:12:10.577Z,18.13
2022-08-18T21:14:39.749Z,18.03
2022-08-18T21:17:13.598Z,18.03
2022-08-18T21:19:40.966Z,18.08
2022-08-18T21:22:11.303Z,18.05
2022-08-18T21:24:44.276Z,18.07
2022-08-18T21:27:26.666Z,18.14
2022-08-18T21:30:05.813Z,18.15
2022-08-18T21:32:35.609Z,18.09
2022-08-18T21:35:18.086Z,18.16
2022-08-18T21:38:05.601Z,18.13
2022-08-18T21:40:36.664Z,18.11
2022-08-18T21:43:03.538Z,18.07
2022-08-18T21:45:31.379Z,18.09
2022-08-18T21:48:04.685Z,18.01
2022-08-18T21:50:34.536Z,17.99
2022-08-18T21:53:16.589Z,17.99
2022-08-18T21:55:46.970Z,17.95
2022-08-18T21:58:14.392Z,18.01
2022-08-18T22:00:46.736Z,18.04
2022-08-18T22:03:20.859Z,18.08
2022-08-18T22:06:20.298Z,18.02
2022-08-18T22:08:51.338Z,18.05
2022-08-18T22:12:00.902Z,18.12
2022-08-18T22:14:54.377Z,18.00
2022-08-18T22:17:40.774Z,17.97
2022-08-18T22:20:42.861Z,17.88
2022-08-18T22:23:34.496Z,17.86
2022-08-18T22:26:16.132Z,17.84
2022-08-18T22:28:52.053Z,17.83
2022-08-18T22:31:21.210Z,17.85
2022-08-18T22:33:48.849Z,17.77
2022-08-18T22:36:19.484Z,17.74
2022-08-18T22:38:47.757Z,17.66
2022-08-18T22:41:17.040Z,17.58
2022-08-18T22:43:44.128Z,17.50
2022-08-18T22:46:11.352Z,17.43
2022-08-18T22:48:38.326Z,17.34
2022-08-18T22:51:05.670Z,17.34
2022-08-18T22:53:32.666Z,17.30
2022-08-18T22:56:05.886Z,17.27
2022-08-18T22:58:34.208Z,17.28
2022-08-18T23:01:05.243Z,17.21
2022-08-18T23:03:34.413Z,17.18
2022-08-18T23:06:09.250Z,17.09
2022-08-18T23:08:54.572Z,17.07
2022-08-18T23:11:23.886Z,17.10
2022-08-18T23:13:50.991Z,17.06
2022-08-18T23:16:31.954Z,17.02
2022-08-18T23:19:03.484Z,17.06
2022-08-18T23:21:34.428Z,17.02
2022-08-18T23:24:06.754Z,16.99
2022-08-18T23:26:34.434Z,17.01
2022-08-18T23:29:02.190Z,17.03
2022-08-18T23:31:30.457Z,16.97
2022-08-18T23:34:00.888Z,16.99
2022-08-18T23:36:30.647Z,17.08
2022-08-18T23:38:58.105Z,17.11
2022-08-18T23:41:25.575Z,17.24
2022-08-18T23:43:52.564Z,17.31
2022-08-18T23:46:28.728Z,17.35
2022-08-18T23:48:58.232Z,17.50
2022-08-18T23:51:30.661Z,17.43
2022-08-18T23:53:59.475Z,17.52
2022-08-18T23:56:29.804Z,17.51
2022-08-18T23:58:57.920Z,17.49
